Leonardo — IAZA — position and weather

sailwx.info

Track history (hours):
 
Tides and Currents Weather Stations Pressure Air Temp Water Temp Dewpoint Dewpoint Depression Visibility Wind Speed Wind Dir Waves Ship Positions

Leonardo

Last reported at 2015-Jun-12 11:24 UTC. Time now 2015-Jun-30 14:29 UTC.
Position N 38°02' E 015°32'.
Warning: this ship's position is 18 days out of date.

Length 28 m; draft 2.7 m.

MMSI: 247155800.

Date/timePositionNaut miles runAvg speedWind from/ knotsBaromVisibWave heightAir tempDewpointWater temp
2015-Jun-12 11:24N 38°02' E 015°32'7 8.8
2015-Jun-12 10:34N 38°09' E 015°35'9 8.8
2015-Jun-12 09:34N 38°17' E 015°41'9 9.0
2015-Jun-12 08:33N 38°24' E 015°34'58 9.4
2015-Jun-12 02:20N 39°09' E 014°46'11 9.2
2015-Jun-12 01:05N 39°19' E 014°38'70 9.3
2015-Jun-11 17:33N 40°16' E 013°46'10 9.7
2015-Jun-11 16:31N 40°24' E 013°38'55 8.7
2015-Jun-11 10:14N 40°59' E 012°42'225 4.5
2015-Jun-09 08:12N 44°06' E 009°53'0 0.0
2015-Jun-09 07:33N 44°06' E 009°53'0 0.0
2015-Jun-09 06:33N 44°06' E 009°53'0 0.0
2015-Jun-09 05:33N 44°06' E 009°53'0 0.0
2015-Jun-09 04:33N 44°06' E 009°53'0 0.0
2015-Jun-09 03:33N 44°06' E 009°53'0 0.0
2015-Jun-09 02:34N 44°06' E 009°53'0 0.0
2015-Jun-09 01:33N 44°06' E 009°53'0 0.0
2015-Jun-09 00:33N 44°06' E 009°53'0 0.0
2015-Jun-08 23:34N 44°06' E 009°53'0 0.0
2015-Jun-08 22:34N 44°06' E 009°53'0 0.0
2015-Jun-08 21:33N 44°06' E 009°53'0 0.0
2015-Jun-08 20:34N 44°06' E 009°53'0 0.0
2015-Jun-08 19:33N 44°06' E 009°53'0 0.0
2015-Jun-08 18:33N 44°06' E 009°53'1 1.2
2015-Jun-08 17:33N 44°05' E 009°51'0 0.0
2015-Jun-08 16:32N 44°05' E 009°51'0 0.0
2015-Jun-08 15:32N 44°05' E 009°51'1 0.5
2015-Jun-08 14:25N 44°06' E 009°50'0 0.0
2015-Jun-08 13:31N 44°06' E 009°50'0 0.0
2015-Jun-08 12:30N 44°06' E 009°50'0 0.0
2015-Jun-08 11:30N 44°06' E 009°50'0 0.0
2015-Jun-08 10:33N 44°06' E 009°50'0 0.0
2015-Jun-08 09:32N 44°06' E 009°50'0 0.0
2015-Jun-08 08:32N 44°06' E 009°50'0 0.0
2015-Jun-08 07:31N 44°06' E 009°50'0 0.0
2015-Jun-08 06:31N 44°06' E 009°50'3 3.0
2015-Jun-08 05:32N 44°05' E 009°54'0 0.0
2015-Jun-08 04:32N 44°05' E 009°54'0 0.4
2015-Jun-08 03:31N 44°05' E 009°54'2 1.5
2015-Jun-08 02:28N 44°06' E 009°52'0 0.0
2015-Jun-08 01:30N 44°06' E 009°52'0 0.0
2015-Jun-08 00:33N 44°06' E 009°52'0 0.0
2015-Jun-07 23:32N 44°06' E 009°52'0 0.0
2015-Jun-07 22:32N 44°06' E 009°52'0 0.0
2015-Jun-07 21:32N 44°06' E 009°52'0 0.0
2015-Jun-07 20:31N 44°06' E 009°52'0 0.0
2015-Jun-07 19:31N 44°06' E 009°52'0 0.0
2015-Jun-07 18:33N 44°06' E 009°52'0 0.0
2015-Jun-07 17:33N 44°06' E 009°52'0 0.0
2015-Jun-07 16:32N 44°06' E 009°52'0 0.0
2015-Jun-07 15:32N 44°06' E 009°52'0 0.0
2015-Jun-07 14:32N 44°06' E 009°52'0 0.0
2015-Jun-07 13:31N 44°06' E 009°52'0 0.0
2015-Jun-07 12:31N 44°06' E 009°52'0 0.0
2015-Jun-07 11:33N 44°06' E 009°52'0 0.0
2015-Jun-07 10:33N 44°06' E 009°52'0 0.0
2015-Jun-07 09:32N 44°06' E 009°52'0 0.0
2015-Jun-07 08:32N 44°06' E 009°52'0 0.0
2015-Jun-07 07:31N 44°06' E 009°52'0 0.0
2015-Jun-07 06:31N 44°06' E 009°52'0 0.0
2015-Jun-07 05:31N 44°06' E 009°52'0 0.0
2015-Jun-07 04:33N 44°06' E 009°52'0 0.0
2015-Jun-07 03:33N 44°06' E 009°52'0 0.0
2015-Jun-07 02:32N 44°06' E 009°52'0 0.0
2015-Jun-07 01:32N 44°06' E 009°52'0 0.0
2015-Jun-07 00:31N 44°06' E 009°52'0 0.0
2015-Jun-06 23:31N 44°06' E 009°52'0 0.0
2015-Jun-06 22:31N 44°06' E 009°52'0 0.0
2015-Jun-06 21:33N 44°06' E 009°52'0 0.0
2015-Jun-06 20:33N 44°06' E 009°52'0 0.0
2015-Jun-06 19:32N 44°06' E 009°52'0 0.0
2015-Jun-06 18:32N 44°06' E 009°52'0 0.0
2015-Jun-06 17:31N 44°06' E 009°52'0 0.0
2015-Jun-06 16:31N 44°06' E 009°52'0 0.0
2015-Jun-06 15:31N 44°06' E 009°52'0 0.0
2015-Jun-06 14:33N 44°06' E 009°52'0 0.0
2015-Jun-06 13:33N 44°06' E 009°52'0 0.0
2015-Jun-06 12:32N 44°06' E 009°52'0 0.0
2015-Jun-06 11:32N 44°06' E 009°52'0 0.0
2015-Jun-06 10:31N 44°06' E 009°52'0 0.0
2015-Jun-06 09:31N 44°06' E 009°52'0 0.0
2015-Jun-06 08:31N 44°06' E 009°52'0 0.0
2015-Jun-06 07:33N 44°06' E 009°52'0 0.0
2015-Jun-06 06:33N 44°06' E 009°52'0 0.0
2015-Jun-06 05:32N 44°06' E 009°52'0 0.0
2015-Jun-06 04:32N 44°06' E 009°52'0 0.0
2015-Jun-06 03:31N 44°06' E 009°52'0 0.0
2015-Jun-06 02:31N 44°06' E 009°52'0 0.0
2015-Jun-06 01:33N 44°06' E 009°52'0 0.0
2015-Jun-06 00:33N 44°06' E 009°52'0 0.0
2015-Jun-05 23:33N 44°06' E 009°52'0 0.0
2015-Jun-05 22:32N 44°06' E 009°52'0 0.0
2015-Jun-05 21:32N 44°06' E 009°52'0 0.0
2015-Jun-05 20:31N 44°06' E 009°52'0 0.0
2015-Jun-05 19:31N 44°06' E 009°52'0 0.0
2015-Jun-05 18:33N 44°06' E 009°52'0 0.0
2015-Jun-05 17:33N 44°06' E 009°52'0 0.0
2015-Jun-05 16:33N 44°06' E 009°52'0 0.0
2015-Jun-05 15:32N 44°06' E 009°52'0 0.0
2015-Jun-05 14:32N 44°06' E 009°52'0 0.0
2015-Jun-05 13:28N 44°06' E 009°52'0 0.0
2015-Jun-05 12:31N 44°06' E 009°52'0 0.0
2015-Jun-05 11:33N 44°06' E 009°52'0 0.0
2015-Jun-05 10:33N 44°06' E 009°52'0 0.0
2015-Jun-05 09:33N 44°06' E 009°52'0 0.0
2015-Jun-05 08:32N 44°06' E 009°52'0 0.0
2015-Jun-05 07:32N 44°06' E 009°52'0 0.0
2015-Jun-05 06:31N 44°06' E 009°52'0 0.0
2015-Jun-05 05:31N 44°06' E 009°52'0 0.0
2015-Jun-05 04:33N 44°06' E 009°52'0 0.0
2015-Jun-05 03:33N 44°06' E 009°52'0 0.0
2015-Jun-05 02:26N 44°06' E 009°52'0 0.0
2015-Jun-05 01:32N 44°06' E 009°52'0 0.0
2015-Jun-05 00:32N 44°06' E 009°52'0 0.0
2015-Jun-04 23:31N 44°06' E 009°52'0 0.0
2015-Jun-04 22:31N 44°06' E 009°52'0 0.0
2015-Jun-04 21:33N 44°06' E 009°52'0 0.0
2015-Jun-04 20:33N 44°06' E 009°52'0 0.0
2015-Jun-04 19:32N 44°06' E 009°52'0 0.0
2015-Jun-04 18:32N 44°06' E 009°52'0 0.0
2015-Jun-04 17:32N 44°06' E 009°52'0 0.0
2015-Jun-04 16:32N 44°06' E 009°52'0 0.0
2015-Jun-04 15:31N 44°06' E 009°52'0 0.0
2015-Jun-04 14:33N 44°06' E 009°52'0 0.0
2015-Jun-04 13:30N 44°06' E 009°52'0 0.0
2015-Jun-04 12:32N 44°06' E 009°52'0 0.0
2015-Jun-04 11:32N 44°06' E 009°52'0 0.0
2015-Jun-04 10:32N 44°06' E 009°52'0 0.0
2015-Jun-04 09:31N 44°06' E 009°52'0 0.0
2015-Jun-04 08:31N 44°06' E 009°52'0 0.0
2015-Jun-04 07:33N 44°06' E 009°52'0 0.0
2015-Jun-04 06:33N 44°06' E 009°52'0 0.0
2015-Jun-04 05:32N 44°06' E 009°52'0 0.0
2015-Jun-04 04:32N 44°06' E 009°52'0 0.0
2015-Jun-04 03:32N 44°06' E 009°52'0 0.0
2015-Jun-04 02:31N 44°06' E 009°52'0 0.0
2015-Jun-04 01:31N 44°06' E 009°52'0 0.0
2015-Jun-04 00:30N 44°06' E 009°52'0 0.0
2015-Jun-03 23:33N 44°06' E 009°52'0 0.0
2015-Jun-03 22:32N 44°06' E 009°52'0 0.0
2015-Jun-03 21:32N 44°06' E 009°52'0 0.0
2015-Jun-03 20:32N 44°06' E 009°52'0 0.0
2015-Jun-03 19:31N 44°06' E 009°52'0 0.0
2015-Jun-03 18:31N 44°06' E 009°52'0 0.0
2015-Jun-03 17:33N 44°06' E 009°52'0 0.0
2015-Jun-03 16:33N 44°06' E 009°52'0 0.0
2015-Jun-03 15:32N 44°06' E 009°52'0 0.0
2015-Jun-03 14:32N 44°06' E 009°52'0 0.0
2015-Jun-03 13:31N 44°06' E 009°52'0 0.0
2015-Jun-03 12:31N 44°06' E 009°52'0 0.0
2015-Jun-03 11:31N 44°06' E 009°52'0 0.0
2015-Jun-03 10:33N 44°06' E 009°52'0 0.0
2015-Jun-03 09:33N 44°06' E 009°52'0 0.0
2015-Jun-03 08:32N 44°06' E 009°52'0 0.0
2015-Jun-03 07:32N 44°06' E 009°52'0 0.0
2015-Jun-03 06:31N 44°06' E 009°52'0 0.0
2015-Jun-03 05:31N 44°06' E 009°52'0 0.0
2015-Jun-03 04:31N 44°06' E 009°52'0 0.0
2015-Jun-03 03:33N 44°06' E 009°52'0 0.0
2015-Jun-03 02:33N 44°06' E 009°52'0 0.0
2015-Jun-03 01:32N 44°06' E 009°52'0 0.0
2015-Jun-03 00:32N 44°06' E 009°52'0 0.0
2015-Jun-02 23:31N 44°06' E 009°52'0 0.0
2015-Jun-02 22:31N 44°06' E 009°52'0 0.0
2015-Jun-02 21:31N 44°06' E 009°52'0 0.0
2015-Jun-02 20:33N 44°06' E 009°52'0 0.0
2015-Jun-02 19:33N 44°06' E 009°52'0 0.0
2015-Jun-02 18:32N 44°06' E 009°52'0 0.1
2015-Jun-02 17:32N 44°06' E 009°52'0 0.0
2015-Jun-02 16:31N 44°06' E 009°52'0 0.0
2015-Jun-02 15:31N 44°06' E 009°52'0 0.0
2015-Jun-02 14:34N 44°06' E 009°52'0 0.0
2015-Jun-02 13:33N 44°06' E 009°52'0 0.0
2015-Jun-02 12:33N 44°06' E 009°52'0 0.0
2015-Jun-02 11:32N 44°06' E 009°52'  
Track history (hours):
 
Tides and Currents Weather Stations Pressure Air Temp Water Temp Dewpoint Dewpoint Depression Visibility Wind Speed Wind Dir Waves Ship Positions

Leonardo

Last reported at 2015-Jun-12 11:24 UTC. Time now 2015-Jun-30 14:29 UTC.
Position N 38°02' E 015°32'.
Warning: this ship's position is 18 days out of date.

Length 28 m; draft 2.7 m.

MMSI: 247155800.

Date/timePositionNaut miles runAvg speedWind from/ knotsBaromVisibWave heightAir tempDewpointWater temp
2015-Jun-12 11:24N 38°02' E 015°32'7 8.8
2015-Jun-12 10:34N 38°09' E 015°35'9 8.8
2015-Jun-12 09:34N 38°17' E 015°41'9 9.0
2015-Jun-12 08:33N 38°24' E 015°34'58 9.4
2015-Jun-12 02:20N 39°09' E 014°46'11 9.2
2015-Jun-12 01:05N 39°19' E 014°38'70 9.3
2015-Jun-11 17:33N 40°16' E 013°46'10 9.7
2015-Jun-11 16:31N 40°24' E 013°38'55 8.7
2015-Jun-11 10:14N 40°59' E 012°42'225 4.5
2015-Jun-09 08:12N 44°06' E 009°53'0 0.0
2015-Jun-09 07:33N 44°06' E 009°53'0 0.0
2015-Jun-09 06:33N 44°06' E 009°53'0 0.0
2015-Jun-09 05:33N 44°06' E 009°53'0 0.0
2015-Jun-09 04:33N 44°06' E 009°53'0 0.0
2015-Jun-09 03:33N 44°06' E 009°53'0 0.0
2015-Jun-09 02:34N 44°06' E 009°53'0 0.0
2015-Jun-09 01:33N 44°06' E 009°53'0 0.0
2015-Jun-09 00:33N 44°06' E 009°53'0 0.0
2015-Jun-08 23:34N 44°06' E 009°53'0 0.0
2015-Jun-08 22:34N 44°06' E 009°53'0 0.0
2015-Jun-08 21:33N 44°06' E 009°53'0 0.0
2015-Jun-08 20:34N 44°06' E 009°53'0 0.0
2015-Jun-08 19:33N 44°06' E 009°53'0 0.0
2015-Jun-08 18:33N 44°06' E 009°53'1 1.2
2015-Jun-08 17:33N 44°05' E 009°51'0 0.0
2015-Jun-08 16:32N 44°05' E 009°51'0 0.0
2015-Jun-08 15:32N 44°05' E 009°51'1 0.5
2015-Jun-08 14:25N 44°06' E 009°50'0 0.0
2015-Jun-08 13:31N 44°06' E 009°50'0 0.0
2015-Jun-08 12:30N 44°06' E 009°50'0 0.0
2015-Jun-08 11:30N 44°06' E 009°50'0 0.0
2015-Jun-08 10:33N 44°06' E 009°50'0 0.0
2015-Jun-08 09:32N 44°06' E 009°50'0 0.0
2015-Jun-08 08:32N 44°06' E 009°50'0 0.0
2015-Jun-08 07:31N 44°06' E 009°50'0 0.0
2015-Jun-08 06:31N 44°06' E 009°50'3 3.0
2015-Jun-08 05:32N 44°05' E 009°54'0 0.0
2015-Jun-08 04:32N 44°05' E 009°54'0 0.4
2015-Jun-08 03:31N 44°05' E 009°54'2 1.5
2015-Jun-08 02:28N 44°06' E 009°52'0 0.0
2015-Jun-08 01:30N 44°06' E 009°52'0 0.0
2015-Jun-08 00:33N 44°06' E 009°52'0 0.0
2015-Jun-07 23:32N 44°06' E 009°52'0 0.0
2015-Jun-07 22:32N 44°06' E 009°52'0 0.0
2015-Jun-07 21:32N 44°06' E 009°52'0 0.0
2015-Jun-07 20:31N 44°06' E 009°52'0 0.0
2015-Jun-07 19:31N 44°06' E 009°52'0 0.0
2015-Jun-07 18:33N 44°06' E 009°52'0 0.0
2015-Jun-07 17:33N 44°06' E 009°52'0 0.0
2015-Jun-07 16:32N 44°06' E 009°52'0 0.0
2015-Jun-07 15:32N 44°06' E 009°52'0 0.0
2015-Jun-07 14:32N 44°06' E 009°52'0 0.0
2015-Jun-07 13:31N 44°06' E 009°52'0 0.0
2015-Jun-07 12:31N 44°06' E 009°52'0 0.0
2015-Jun-07 11:33N 44°06' E 009°52'0 0.0
2015-Jun-07 10:33N 44°06' E 009°52'0 0.0
2015-Jun-07 09:32N 44°06' E 009°52'0 0.0
2015-Jun-07 08:32N 44°06' E 009°52'0 0.0
2015-Jun-07 07:31N 44°06' E 009°52'0 0.0
2015-Jun-07 06:31N 44°06' E 009°52'0 0.0
2015-Jun-07 05:31N 44°06' E 009°52'0 0.0
2015-Jun-07 04:33N 44°06' E 009°52'0 0.0
2015-Jun-07 03:33N 44°06' E 009°52'0 0.0
2015-Jun-07 02:32N 44°06' E 009°52'0 0.0
2015-Jun-07 01:32N 44°06' E 009°52'0 0.0
2015-Jun-07 00:31N 44°06' E 009°52'0 0.0
2015-Jun-06 23:31N 44°06' E 009°52'0 0.0
2015-Jun-06 22:31N 44°06' E 009°52'0 0.0
2015-Jun-06 21:33N 44°06' E 009°52'0 0.0
2015-Jun-06 20:33N 44°06' E 009°52'0 0.0
2015-Jun-06 19:32N 44°06' E 009°52'0 0.0
2015-Jun-06 18:32N 44°06' E 009°52'0 0.0
2015-Jun-06 17:31N 44°06' E 009°52'0 0.0
2015-Jun-06 16:31N 44°06' E 009°52'0 0.0
2015-Jun-06 15:31N 44°06' E 009°52'0 0.0
2015-Jun-06 14:33N 44°06' E 009°52'0 0.0
2015-Jun-06 13:33N 44°06' E 009°52'0 0.0
2015-Jun-06 12:32N 44°06' E 009°52'0 0.0
2015-Jun-06 11:32N 44°06' E 009°52'0 0.0
2015-Jun-06 10:31N 44°06' E 009°52'0 0.0
2015-Jun-06 09:31N 44°06' E 009°52'0 0.0
2015-Jun-06 08:31N 44°06' E 009°52'0 0.0
2015-Jun-06 07:33N 44°06' E 009°52'0 0.0
2015-Jun-06 06:33N 44°06' E 009°52'0 0.0
2015-Jun-06 05:32N 44°06' E 009°52'0 0.0
2015-Jun-06 04:32N 44°06' E 009°52'0 0.0
2015-Jun-06 03:31N 44°06' E 009°52'0 0.0
2015-Jun-06 02:31N 44°06' E 009°52'0 0.0
2015-Jun-06 01:33N 44°06' E 009°52'0 0.0
2015-Jun-06 00:33N 44°06' E 009°52'0 0.0
2015-Jun-05 23:33N 44°06' E 009°52'0 0.0
2015-Jun-05 22:32N 44°06' E 009°52'0 0.0
2015-Jun-05 21:32N 44°06' E 009°52'0 0.0
2015-Jun-05 20:31N 44°06' E 009°52'0 0.0
2015-Jun-05 19:31N 44°06' E 009°52'0 0.0
2015-Jun-05 18:33N 44°06' E 009°52'0 0.0
2015-Jun-05 17:33N 44°06' E 009°52'0 0.0
2015-Jun-05 16:33N 44°06' E 009°52'0 0.0
2015-Jun-05 15:32N 44°06' E 009°52'0 0.0
2015-Jun-05 14:32N 44°06' E 009°52'0 0.0
2015-Jun-05 13:28N 44°06' E 009°52'0 0.0
2015-Jun-05 12:31N 44°06' E 009°52'0 0.0
2015-Jun-05 11:33N 44°06' E 009°52'0 0.0
2015-Jun-05 10:33N 44°06' E 009°52'0 0.0
2015-Jun-05 09:33N 44°06' E 009°52'0 0.0
2015-Jun-05 08:32N 44°06' E 009°52'0 0.0
2015-Jun-05 07:32N 44°06' E 009°52'0 0.0
2015-Jun-05 06:31N 44°06' E 009°52'0 0.0
2015-Jun-05 05:31N 44°06' E 009°52'0 0.0
2015-Jun-05 04:33N 44°06' E 009°52'0 0.0
2015-Jun-05 03:33N 44°06' E 009°52'0 0.0
2015-Jun-05 02:26N 44°06' E 009°52'0 0.0
2015-Jun-05 01:32N 44°06' E 009°52'0 0.0
2015-Jun-05 00:32N 44°06' E 009°52'0 0.0
2015-Jun-04 23:31N 44°06' E 009°52'0 0.0
2015-Jun-04 22:31N 44°06' E 009°52'0 0.0
2015-Jun-04 21:33N 44°06' E 009°52'0 0.0
2015-Jun-04 20:33N 44°06' E 009°52'0 0.0
2015-Jun-04 19:32N 44°06' E 009°52'0 0.0
2015-Jun-04 18:32N 44°06' E 009°52'0 0.0
2015-Jun-04 17:32N 44°06' E 009°52'0 0.0
2015-Jun-04 16:32N 44°06' E 009°52'0 0.0
2015-Jun-04 15:31N 44°06' E 009°52'0 0.0
2015-Jun-04 14:33N 44°06' E 009°52'0 0.0
2015-Jun-04 13:30N 44°06' E 009°52'0 0.0
2015-Jun-04 12:32N 44°06' E 009°52'0 0.0
2015-Jun-04 11:32N 44°06' E 009°52'0 0.0
2015-Jun-04 10:32N 44°06' E 009°52'0 0.0
2015-Jun-04 09:31N 44°06' E 009°52'0 0.0
2015-Jun-04 08:31N 44°06' E 009°52'0 0.0
2015-Jun-04 07:33N 44°06' E 009°52'0 0.0
2015-Jun-04 06:33N 44°06' E 009°52'0 0.0
2015-Jun-04 05:32N 44°06' E 009°52'0 0.0
2015-Jun-04 04:32N 44°06' E 009°52'0 0.0
2015-Jun-04 03:32N 44°06' E 009°52'0 0.0
2015-Jun-04 02:31N 44°06' E 009°52'0 0.0
2015-Jun-04 01:31N 44°06' E 009°52'0 0.0
2015-Jun-04 00:30N 44°06' E 009°52'0 0.0
2015-Jun-03 23:33N 44°06' E 009°52'0 0.0
2015-Jun-03 22:32N 44°06' E 009°52'0 0.0
2015-Jun-03 21:32N 44°06' E 009°52'0 0.0
2015-Jun-03 20:32N 44°06' E 009°52'0 0.0
2015-Jun-03 19:31N 44°06' E 009°52'0 0.0
2015-Jun-03 18:31N 44°06' E 009°52'0 0.0
2015-Jun-03 17:33N 44°06' E 009°52'0 0.0
2015-Jun-03 16:33N 44°06' E 009°52'0 0.0
2015-Jun-03 15:32N 44°06' E 009°52'0 0.0
2015-Jun-03 14:32N 44°06' E 009°52'0 0.0
2015-Jun-03 13:31N 44°06' E 009°52'0 0.0
2015-Jun-03 12:31N 44°06' E 009°52'0 0.0
2015-Jun-03 11:31N 44°06' E 009°52'0 0.0
2015-Jun-03 10:33N 44°06' E 009°52'0 0.0
2015-Jun-03 09:33N 44°06' E 009°52'0 0.0
2015-Jun-03 08:32N 44°06' E 009°52'0 0.0
2015-Jun-03 07:32N 44°06' E 009°52'0 0.0
2015-Jun-03 06:31N 44°06' E 009°52'0 0.0
2015-Jun-03 05:31N 44°06' E 009°52'0 0.0
2015-Jun-03 04:31N 44°06' E 009°52'0 0.0
2015-Jun-03 03:33N 44°06' E 009°52'0 0.0
2015-Jun-03 02:33N 44°06' E 009°52'0 0.0
2015-Jun-03 01:32N 44°06' E 009°52'0 0.0
2015-Jun-03 00:32N 44°06' E 009°52'0 0.0
2015-Jun-02 23:31N 44°06' E 009°52'0 0.0
2015-Jun-02 22:31N 44°06' E 009°52'0 0.0
2015-Jun-02 21:31N 44°06' E 009°52'0 0.0
2015-Jun-02 20:33N 44°06' E 009°52'0 0.0
2015-Jun-02 19:33N 44°06' E 009°52'0 0.0
2015-Jun-02 18:32N 44°06' E 009°52'0 0.1
2015-Jun-02 17:32N 44°06' E 009°52'0 0.0
2015-Jun-02 16:31N 44°06' E 009°52'0 0.0
2015-Jun-02 15:31N 44°06' E 009°52'0 0.0
2015-Jun-02 14:34N 44°06' E 009°52'0 0.0
2015-Jun-02 13:33N 44°06' E 009°52'0 0.0
2015-Jun-02 12:33N 44°06' E 009°52'0 0.0
2015-Jun-02 11:32N 44°06' E 009°52'  

Dump ship's entire track history